createdAt,value
2018-08-24T00:00:40.985Z,5.81
2018-08-24T00:01:41.456Z,5.82
2018-08-24T00:02:41.932Z,5.82
2018-08-24T00:03:42.408Z,5.88
2018-08-24T00:04:43.059Z,5.86
2018-08-24T00:05:43.355Z,5.86
2018-08-24T00:06:43.829Z,5.90
2018-08-24T00:07:44.306Z,5.94
2018-08-24T00:08:44.780Z,5.92
2018-08-24T00:09:45.253Z,5.90
2018-08-24T00:10:45.724Z,5.89
2018-08-24T00:11:46.199Z,5.88
2018-08-24T00:12:46.673Z,5.84
2018-08-24T00:13:47.144Z,5.81
2018-08-24T00:14:47.669Z,5.88
2018-08-24T00:15:48.091Z,5.84
2018-08-24T00:16:48.565Z,5.92
2018-08-24T00:17:49.035Z,5.91
2018-08-24T00:18:49.510Z,5.90
2018-08-24T00:19:49.980Z,5.87
2018-08-24T00:20:50.457Z,5.83
2018-08-24T00:21:50.925Z,5.82
2018-08-24T00:22:51.400Z,5.78
2018-08-24T00:23:51.870Z,5.74
2018-08-24T00:24:52.341Z,5.72
2018-08-24T00:25:52.814Z,5.70
2018-08-24T00:26:53.284Z,5.64
2018-08-24T00:27:53.757Z,5.58
2018-08-24T00:28:54.227Z,5.58
2018-08-24T00:29:54.697Z,5.58
2018-08-24T00:30:55.172Z,5.57
2018-08-24T00:31:55.640Z,5.54
2018-08-24T00:32:56.111Z,5.54
2018-08-24T00:33:56.582Z,5.52
2018-08-24T00:34:57.054Z,5.56
2018-08-24T00:35:57.524Z,5.67
2018-08-24T00:36:57.996Z,5.72
2018-08-24T00:37:58.465Z,5.72
2018-08-24T00:38:58.935Z,5.68
2018-08-24T00:39:59.434Z,5.74
2018-08-24T00:40:59.880Z,5.77
2018-08-24T00:42:00.354Z,5.80
2018-08-24T00:43:00.821Z,5.78
2018-08-24T00:44:01.294Z,5.75
2018-08-24T00:45:01.846Z,5.75
2018-08-24T00:46:02.236Z,5.76
2018-08-24T00:47:02.709Z,5.77
2018-08-24T00:48:03.180Z,5.75
2018-08-24T00:49:03.652Z,5.77
2018-08-24T00:50:04.124Z,5.78
2018-08-24T00:51:04.600Z,5.78
2018-08-24T00:52:05.070Z,5.72
2018-08-24T00:53:05.543Z,5.72
2018-08-24T00:54:06.020Z,5.68
2018-08-24T00:55:06.488Z,5.66
2018-08-24T00:56:06.965Z,5.59
2018-08-24T00:57:07.436Z,5.51
2018-08-24T00:58:07.908Z,5.45
2018-08-24T00:59:08.383Z,5.42
2018-08-24T01:00:08.862Z,5.34
2018-08-24T01:01:09.334Z,5.30
2018-08-24T01:02:09.806Z,5.38
2018-08-24T01:03:10.280Z,5.44
2018-08-24T01:04:10.754Z,5.44
2018-08-24T01:05:11.231Z,5.47
2018-08-24T01:06:11.704Z,5.27
2018-08-24T01:07:12.179Z,5.17
2018-08-24T01:08:12.655Z,5.15
2018-08-24T01:09:13.130Z,5.02
2018-08-24T01:10:13.602Z,4.88
2018-08-24T01:11:14.076Z,4.86
2018-08-24T01:12:14.552Z,4.82
2018-08-24T01:13:15.028Z,4.84
2018-08-24T01:14:15.704Z,4.89
2018-08-24T01:15:15.977Z,5.18
2018-08-24T01:16:16.451Z,5.12
2018-08-24T01:17:16.925Z,5.08
2018-08-24T01:18:17.400Z,5.14
2018-08-24T01:19:17.873Z,5.28
2018-08-24T01:20:18.347Z,5.31
2018-08-24T01:21:18.821Z,5.36
2018-08-24T01:22:19.293Z,5.40
2018-08-24T01:23:19.767Z,5.38
2018-08-24T01:24:20.240Z,5.34
2018-08-24T01:25:20.714Z,5.40
2018-08-24T01:26:21.189Z,5.34
2018-08-24T01:27:21.666Z,5.35
2018-08-24T01:28:22.131Z,5.44
2018-08-24T01:29:22.605Z,5.45
2018-08-24T01:30:23.129Z,5.42
2018-08-24T01:31:23.551Z,5.49
2018-08-24T01:32:24.020Z,5.47
2018-08-24T01:33:24.492Z,5.44
2018-08-24T01:34:24.963Z,5.44
2018-08-24T01:35:25.436Z,5.44
2018-08-24T01:36:25.910Z,5.44
2018-08-24T01:37:26.380Z,5.40
2018-08-24T01:38:26.850Z,5.44
2018-08-24T01:39:27.322Z,5.38
2018-08-24T01:40:27.797Z,5.28
2018-08-24T01:41:28.264Z,5.11
2018-08-24T01:42:28.736Z,5.04
2018-08-24T01:43:29.205Z,5.00
2018-08-24T01:44:29.678Z,4.96
2018-08-24T01:45:30.198Z,4.90
2018-08-24T01:46:30.617Z,4.87
2018-08-24T01:47:31.088Z,4.84
2018-08-24T01:48:31.560Z,4.84
2018-08-24T01:49:32.032Z,4.89
2018-08-24T01:50:32.500Z,4.98
2018-08-24T01:51:32.972Z,4.92
2018-08-24T01:52:33.442Z,4.93
2018-08-24T01:53:33.914Z,4.94
2018-08-24T01:54:34.384Z,4.95
2018-08-24T01:55:34.858Z,4.90
2018-08-24T01:56:35.328Z,4.93
2018-08-24T01:57:35.798Z,5.00
2018-08-24T01:58:36.271Z,5.11
2018-08-24T01:59:36.747Z,5.22
2018-08-24T02:00:37.265Z,5.28
2018-08-24T02:01:37.688Z,5.32
2018-08-24T02:02:38.159Z,5.32
2018-08-24T02:03:38.632Z,5.36
2018-08-24T02:04:39.105Z,5.32
2018-08-24T02:05:39.577Z,5.26
2018-08-24T02:06:40.051Z,5.28
2018-08-24T02:07:40.523Z,5.36
2018-08-24T02:08:40.996Z,5.40
2018-08-24T02:09:41.473Z,5.36
2018-08-24T02:10:41.966Z,5.27
2018-08-24T02:11:42.417Z,5.23
2018-08-24T02:12:42.896Z,5.28
2018-08-24T02:13:43.367Z,5.27
2018-08-24T02:14:43.840Z,5.23
2018-08-24T02:15:44.366Z,5.24
2018-08-24T02:16:44.790Z,5.24
2018-08-24T02:17:45.265Z,5.24
2018-08-24T02:18:45.738Z,5.26
2018-08-24T02:19:46.213Z,5.25
2018-08-24T02:20:46.689Z,5.26
2018-08-24T02:21:47.167Z,5.21
2018-08-24T02:22:47.638Z,5.19
2018-08-24T02:23:48.113Z,5.16
2018-08-24T02:24:48.587Z,5.18
2018-08-24T02:25:49.065Z,5.16
2018-08-24T02:26:49.535Z,5.18
2018-08-24T02:27:50.010Z,5.18
2018-08-24T02:28:50.482Z,5.20
2018-08-24T02:29:50.959Z,5.19
2018-08-24T02:30:51.632Z,5.21
2018-08-24T02:31:51.908Z,5.24
2018-08-24T02:32:52.378Z,5.22
2018-08-24T02:33:52.852Z,5.18
2018-08-24T02:34:53.323Z,5.18
2018-08-24T02:35:53.796Z,5.16
2018-08-24T02:36:54.271Z,5.15
2018-08-24T02:37:54.743Z,5.14
2018-08-24T02:38:55.218Z,5.10
2018-08-24T02:39:55.691Z,5.12
2018-08-24T02:40:56.161Z,5.15
2018-08-24T02:41:56.633Z,5.16
2018-08-24T02:42:57.102Z,5.18
2018-08-24T02:43:57.580Z,5.19
2018-08-24T02:44:58.071Z,5.17
2018-08-24T02:45:58.571Z,5.16
2018-08-24T02:46:58.993Z,5.16
2018-08-24T02:47:59.463Z,5.16
2018-08-24T02:48:59.933Z,5.16
2018-08-24T02:50:00.406Z,5.15
2018-08-24T02:51:00.875Z,5.12
2018-08-24T02:52:01.353Z,5.12
2018-08-24T02:53:01.817Z,5.16
2018-08-24T02:54:02.292Z,5.16
2018-08-24T02:55:02.762Z,5.13
2018-08-24T02:56:03.228Z,5.14
2018-08-24T02:57:03.700Z,5.12
2018-08-24T02:58:04.170Z,5.12
2018-08-24T02:59:04.643Z,5.18
2018-08-24T03:00:05.111Z,5.18
2018-08-24T03:01:05.582Z,5.15
2018-08-24T03:02:06.056Z,5.13
2018-08-24T03:03:06.526Z,5.16
2018-08-24T03:04:06.996Z,5.14
2018-08-24T03:05:07.512Z,5.12
2018-08-24T03:06:07.937Z,5.10
2018-08-24T03:07:08.416Z,5.10
2018-08-24T03:08:08.909Z,5.08
2018-08-24T03:09:09.356Z,5.08
2018-08-24T03:10:09.826Z,5.06
2018-08-24T03:11:10.296Z,5.07
2018-08-24T03:12:10.769Z,5.08
2018-08-24T03:13:11.241Z,5.10
2018-08-24T03:14:11.717Z,5.09
2018-08-24T03:15:12.187Z,5.10
2018-08-24T03:16:12.671Z,5.07
2018-08-24T03:17:13.132Z,5.06
2018-08-24T03:18:13.607Z,5.06
2018-08-24T03:19:14.079Z,5.05
2018-08-24T03:20:14.551Z,5.04
2018-08-24T03:21:15.027Z,5.04
2018-08-24T03:22:15.502Z,5.02
2018-08-24T03:23:15.976Z,5.01
2018-08-24T03:24:16.448Z,5.02
2018-08-24T03:25:16.922Z,5.00
2018-08-24T03:26:17.400Z,5.00
2018-08-24T03:27:17.871Z,4.98
2018-08-24T03:28:18.346Z,4.98
2018-08-24T03:29:18.822Z,5.00
2018-08-24T03:30:19.298Z,5.02
2018-08-24T03:31:19.771Z,4.99
2018-08-24T03:32:20.244Z,4.99
2018-08-24T03:33:20.721Z,4.98
2018-08-24T03:34:21.195Z,4.97
2018-08-24T03:35:21.669Z,4.97
2018-08-24T03:36:22.144Z,5.00
2018-08-24T03:37:22.623Z,5.00
2018-08-24T03:38:23.092Z,5.02
2018-08-24T03:39:23.564Z,4.99
2018-08-24T03:40:24.039Z,5.00
2018-08-24T03:41:24.515Z,5.02
2018-08-24T03:42:24.998Z,5.01
2018-08-24T03:43:25.461Z,5.02
2018-08-24T03:44:25.935Z,5.04
2018-08-24T03:45:26.407Z,5.02
2018-08-24T03:46:26.885Z,5.02
2018-08-24T03:47:27.355Z,5.03
2018-08-24T03:48:27.829Z,5.04
2018-08-24T03:49:28.299Z,5.04
2018-08-24T03:50:28.771Z,5.10
2018-08-24T03:51:29.243Z,5.12
2018-08-24T03:52:29.715Z,5.18
2018-08-24T03:53:30.190Z,5.18
2018-08-24T03:54:30.658Z,5.15
2018-08-24T03:55:31.134Z,5.14
2018-08-24T03:56:31.654Z,5.16
2018-08-24T03:57:32.074Z,5.16
2018-08-24T03:58:32.546Z,5.14
2018-08-24T03:59:33.015Z,5.14
2018-08-24T04:00:33.490Z,5.14
2018-08-24T04:01:33.958Z,5.14
2018-08-24T04:02:34.432Z,5.16
2018-08-24T04:03:34.899Z,5.16
2018-08-24T04:04:35.371Z,5.14
2018-08-24T04:05:35.842Z,5.16
2018-08-24T04:06:36.315Z,5.17
2018-08-24T04:07:36.782Z,5.16
2018-08-24T04:08:37.260Z,5.11
2018-08-24T04:09:37.725Z,5.08
2018-08-24T04:10:38.194Z,5.06
2018-08-24T04:11:38.665Z,5.06
2018-08-24T04:12:39.140Z,5.02
2018-08-24T04:13:39.607Z,5.04
2018-08-24T04:14:40.080Z,5.04
2018-08-24T04:15:40.550Z,5.02
2018-08-24T04:16:41.021Z,5.02
2018-08-24T04:17:41.491Z,5.04
2018-08-24T04:18:41.965Z,5.00
2018-08-24T04:19:42.436Z,4.94
2018-08-24T04:20:42.907Z,4.92
2018-08-24T04:21:43.382Z,4.92
2018-08-24T04:22:43.902Z,4.92
2018-08-24T04:23:44.322Z,4.92
2018-08-24T04:24:44.812Z,4.92
2018-08-24T04:25:45.294Z,4.93
2018-08-24T04:26:45.740Z,4.92
2018-08-24T04:27:46.214Z,4.94
2018-08-24T04:28:46.687Z,4.94
2018-08-24T04:29:47.160Z,4.96
2018-08-24T04:30:47.637Z,4.96
2018-08-24T04:31:48.108Z,4.94
2018-08-24T04:32:48.580Z,4.92
2018-08-24T04:33:49.055Z,4.90
2018-08-24T04:34:49.588Z,4.88
2018-08-24T04:35:50.012Z,4.81
2018-08-24T04:36:50.477Z,4.82
2018-08-24T04:37:50.955Z,4.84
2018-08-24T04:38:51.427Z,4.86
2018-08-24T04:39:51.902Z,4.88
2018-08-24T04:40:52.375Z,4.88
2018-08-24T04:41:52.904Z,4.89
2018-08-24T04:42:53.325Z,4.92
2018-08-24T04:43:53.799Z,4.94
2018-08-24T04:44:54.276Z,4.96
2018-08-24T04:45:54.749Z,4.98
2018-08-24T04:46:55.224Z,4.99
2018-08-24T04:47:55.697Z,5.00
2018-08-24T04:48:56.172Z,4.98
2018-08-24T04:49:56.646Z,4.98
2018-08-24T04:50:57.120Z,4.98
2018-08-24T04:51:57.594Z,5.00
2018-08-24T04:52:58.067Z,5.04
2018-08-24T04:53:58.543Z,5.07
2018-08-24T04:54:59.015Z,5.08
2018-08-24T04:55:59.487Z,5.03
2018-08-24T04:56:59.961Z,4.98
2018-08-24T04:58:00.434Z,4.93
2018-08-24T04:59:00.906Z,4.86
2018-08-24T05:00:01.379Z,4.84
2018-08-24T05:01:01.853Z,4.84
2018-08-24T05:02:02.324Z,4.84
2018-08-24T05:03:02.795Z,4.86
2018-08-24T05:04:03.268Z,4.83
2018-08-24T05:05:03.741Z,4.82
2018-08-24T05:06:04.212Z,4.84
2018-08-24T05:07:04.737Z,4.82
2018-08-24T05:08:05.157Z,4.84
2018-08-24T05:09:05.628Z,4.86
2018-08-24T05:10:06.098Z,4.89
2018-08-24T05:11:06.569Z,4.94
2018-08-24T05:12:07.046Z,4.94
2018-08-24T05:13:07.512Z,4.95
2018-08-24T05:14:07.986Z,4.94
2018-08-24T05:15:08.452Z,4.94
2018-08-24T05:16:08.923Z,4.92
2018-08-24T05:17:09.394Z,4.92
2018-08-24T05:18:09.865Z,4.88
2018-08-24T05:19:10.334Z,4.88
2018-08-24T05:20:10.804Z,4.85
2018-08-24T05:21:11.338Z,4.80
2018-08-24T05:22:11.747Z,4.79
2018-08-24T05:23:12.217Z,4.82
2018-08-24T05:24:12.688Z,4.80
2018-08-24T05:25:13.160Z,4.84
2018-08-24T05:26:13.630Z,4.86
2018-08-24T05:27:14.103Z,4.89
2018-08-24T05:28:14.635Z,4.88
2018-08-24T05:29:15.046Z,4.88
2018-08-24T05:30:15.517Z,4.95
2018-08-24T05:31:15.990Z,4.98
2018-08-24T05:32:16.459Z,4.99
2018-08-24T05:33:16.931Z,5.04
2018-08-24T05:34:17.404Z,5.06
2018-08-24T05:35:17.876Z,5.14
2018-08-24T05:36:18.350Z,5.16
2018-08-24T05:37:18.820Z,5.14
2018-08-24T05:38:19.296Z,5.10
2018-08-24T05:39:19.771Z,5.06
2018-08-24T05:40:20.238Z,5.04
2018-08-24T05:41:20.754Z,5.00
2018-08-24T05:42:21.186Z,4.94
2018-08-24T05:43:21.663Z,4.90
2018-08-24T05:44:22.133Z,4.84
2018-08-24T05:45:22.610Z,4.77
2018-08-24T05:46:23.084Z,4.70
2018-08-24T05:47:23.559Z,4.76
2018-08-24T05:48:24.032Z,4.85
2018-08-24T05:49:24.507Z,4.88
2018-08-24T05:50:24.982Z,4.86
2018-08-24T05:51:25.457Z,4.85
2018-08-24T05:52:25.980Z,4.81
2018-08-24T05:53:26.405Z,4.78
2018-08-24T05:54:26.879Z,4.75
2018-08-24T05:55:27.357Z,4.73
2018-08-24T05:56:27.827Z,4.68
2018-08-24T05:57:28.306Z,4.68
2018-08-24T05:58:28.777Z,4.71
2018-08-24T05:59:29.256Z,4.78
2018-08-24T06:00:29.729Z,4.78
2018-08-24T06:01:30.201Z,4.76
2018-08-24T06:02:30.674Z,4.74
2018-08-24T06:03:31.145Z,4.72
2018-08-24T06:04:31.618Z,4.70
2018-08-24T06:05:32.140Z,4.68
2018-08-24T06:06:32.566Z,4.70
2018-08-24T06:07:33.044Z,4.66
2018-08-24T06:08:33.515Z,4.66
2018-08-24T06:09:33.986Z,4.68
2018-08-24T06:10:34.456Z,4.65
2018-08-24T06:11:34.930Z,4.62
2018-08-24T06:12:35.402Z,4.56
2018-08-24T06:13:35.873Z,4.52
2018-08-24T06:14:36.345Z,4.50
2018-08-24T06:15:36.817Z,4.50
2018-08-24T06:16:37.305Z,4.46
2018-08-24T06:17:37.761Z,4.43
2018-08-24T06:18:38.237Z,4.41
2018-08-24T06:19:38.706Z,4.43
2018-08-24T06:20:39.174Z,4.39
2018-08-24T06:21:39.648Z,4.37
2018-08-24T06:22:40.118Z,4.36
2018-08-24T06:23:40.591Z,4.36
2018-08-24T06:24:41.061Z,4.32
2018-08-24T06:25:41.528Z,4.28
2018-08-24T06:26:42.000Z,4.28
2018-08-24T06:27:42.474Z,4.26
2018-08-24T06:28:42.987Z,4.24
2018-08-24T06:29:43.412Z,4.24
2018-08-24T06:30:43.884Z,4.23
2018-08-24T06:31:44.356Z,4.24
2018-08-24T06:32:44.889Z,4.24
2018-08-24T06:33:45.294Z,4.24
2018-08-24T06:34:45.768Z,4.22
2018-08-24T06:35:46.238Z,4.21
2018-08-24T06:36:46.710Z,4.18
2018-08-24T06:37:47.179Z,4.16
2018-08-24T06:38:47.652Z,4.18
2018-08-24T06:39:48.124Z,4.16
2018-08-24T06:40:48.594Z,4.14
2018-08-24T06:41:49.132Z,4.12
2018-08-24T06:42:49.537Z,4.11
2018-08-24T06:43:50.009Z,4.10
2018-08-24T06:44:50.483Z,4.12
2018-08-24T06:45:50.955Z,4.15
2018-08-24T06:46:51.429Z,4.16
2018-08-24T06:47:51.902Z,4.20
2018-08-24T06:48:52.377Z,4.24
2018-08-24T06:49:52.847Z,4.28
2018-08-24T06:50:53.325Z,4.30
2018-08-24T06:51:53.793Z,4.31
2018-08-24T06:52:54.308Z,4.34
2018-08-24T06:53:54.804Z,4.34
2018-08-24T06:54:55.214Z,4.34
2018-08-24T06:55:55.692Z,4.30
2018-08-24T06:56:56.162Z,4.30
2018-08-24T06:57:56.638Z,4.36
2018-08-24T06:58:57.112Z,4.33
2018-08-24T06:59:57.587Z,4.30
2018-08-24T07:00:58.059Z,4.28
2018-08-24T07:01:58.536Z,4.27
2018-08-24T07:02:59.015Z,4.27
2018-08-24T07:03:59.484Z,4.28
2018-08-24T07:04:59.959Z,4.29
2018-08-24T07:06:00.444Z,4.29
2018-08-24T07:07:00.908Z,4.33
2018-08-24T07:08:01.383Z,4.34
2018-08-24T07:09:01.856Z,4.34
2018-08-24T07:10:02.329Z,4.32
2018-08-24T07:11:02.805Z,4.30
2018-08-24T07:12:03.278Z,4.26
2018-08-24T07:13:03.829Z,4.26
2018-08-24T07:14:04.226Z,4.28
2018-08-24T07:15:04.699Z,4.32
2018-08-24T07:16:05.176Z,4.31
2018-08-24T07:17:05.645Z,4.32
2018-08-24T07:18:06.164Z,4.30
2018-08-24T07:19:06.595Z,4.33
2018-08-24T07:20:07.100Z,4.32
2018-08-24T07:21:07.538Z,4.32
2018-08-24T07:22:08.011Z,4.30
2018-08-24T07:23:08.488Z,4.27
2018-08-24T07:24:08.955Z,4.24
2018-08-24T07:25:09.460Z,4.24
2018-08-24T07:26:09.899Z,4.24
2018-08-24T07:27:10.374Z,4.24
2018-08-24T07:28:10.841Z,4.22
2018-08-24T07:29:11.313Z,4.21
2018-08-24T07:30:11.787Z,4.22
2018-08-24T07:31:12.257Z,4.22
2018-08-24T07:32:12.730Z,4.22
2018-08-24T07:33:13.198Z,4.25
2018-08-24T07:34:13.670Z,4.26
2018-08-24T07:35:14.140Z,4.32
2018-08-24T07:36:14.612Z,4.34
2018-08-24T07:37:15.083Z,4.39
2018-08-24T07:38:15.604Z,4.45
2018-08-24T07:39:16.023Z,4.50
2018-08-24T07:40:16.496Z,4.55
2018-08-24T07:41:17.019Z,4.59
2018-08-24T07:42:17.436Z,4.56
2018-08-24T07:43:17.905Z,4.56
2018-08-24T07:44:18.376Z,4.59
2018-08-24T07:45:18.852Z,4.58
2018-08-24T07:46:19.319Z,4.61
2018-08-24T07:47:19.797Z,4.61
2018-08-24T07:48:20.313Z,4.66
2018-08-24T07:49:20.733Z,4.71
2018-08-24T07:50:21.204Z,4.74
2018-08-24T07:51:21.677Z,4.79
2018-08-24T07:52:22.153Z,4.80
2018-08-24T07:53:22.620Z,4.80
2018-08-24T07:54:23.093Z,4.76
2018-08-24T07:55:23.565Z,4.77
2018-08-24T07:56:24.037Z,4.77
2018-08-24T07:57:24.511Z,4.76
2018-08-24T07:58:24.983Z,4.73
2018-08-24T07:59:25.459Z,4.68
2018-08-24T08:00:25.932Z,4.65
2018-08-24T08:01:26.402Z,4.66
2018-08-24T08:02:26.879Z,4.64
2018-08-24T08:03:27.352Z,4.62
2018-08-24T08:04:27.825Z,4.60
2018-08-24T08:05:28.375Z,4.62
2018-08-24T08:06:28.773Z,4.68
2018-08-24T08:07:29.247Z,4.70
2018-08-24T08:08:29.724Z,4.73
2018-08-24T08:09:30.198Z,4.74
2018-08-24T08:10:30.672Z,4.80
2018-08-24T08:11:31.148Z,4.81
2018-08-24T08:12:31.668Z,4.82
2018-08-24T08:13:32.099Z,4.78
2018-08-24T08:14:32.571Z,4.82
2018-08-24T08:15:33.047Z,4.84
2018-08-24T08:16:33.524Z,4.90
2018-08-24T08:17:33.994Z,4.92
2018-08-24T08:18:34.499Z,4.96
2018-08-24T08:19:34.946Z,5.00
2018-08-24T08:20:35.421Z,5.05
2018-08-24T08:21:35.895Z,5.05
2018-08-24T08:22:36.369Z,5.09
2018-08-24T08:23:36.877Z,5.06
2018-08-24T08:24:37.333Z,5.08
2018-08-24T08:25:37.794Z,5.18
2018-08-24T08:26:38.270Z,5.17
2018-08-24T08:27:38.744Z,5.22
2018-08-24T08:28:39.225Z,5.29
2018-08-24T08:29:39.695Z,5.41
2018-08-24T08:30:40.174Z,5.50
2018-08-24T08:31:40.651Z,5.44
2018-08-24T08:32:41.129Z,5.44
2018-08-24T08:33:41.654Z,5.38
2018-08-24T08:34:42.084Z,5.42
2018-08-24T08:35:42.565Z,5.39
2018-08-24T08:36:43.042Z,5.46
2018-08-24T08:37:43.524Z,5.58
2018-08-24T08:38:43.998Z,5.54
2018-08-24T08:39:44.495Z,5.55
2018-08-24T08:40:44.955Z,5.44
2018-08-24T08:41:45.437Z,5.36
2018-08-24T08:42:45.909Z,5.28
2018-08-24T08:43:46.387Z,5.30
2018-08-24T08:44:46.865Z,5.30
2018-08-24T08:45:47.343Z,5.28
2018-08-24T08:46:47.819Z,5.30
2018-08-24T08:47:48.295Z,5.24
2018-08-24T08:48:48.774Z,5.24
2018-08-24T08:49:49.247Z,5.24
2018-08-24T08:50:49.720Z,5.25
2018-08-24T08:51:50.198Z,5.23
2018-08-24T08:52:50.673Z,5.22
2018-08-24T08:53:51.147Z,5.23
2018-08-24T08:54:51.623Z,5.20
2018-08-24T08:55:52.097Z,5.12
2018-08-24T08:56:52.573Z,5.06
2018-08-24T08:57:53.048Z,4.99
2018-08-24T08:58:53.519Z,5.00
2018-08-24T08:59:53.993Z,5.06
2018-08-24T09:00:54.468Z,5.08
2018-08-24T09:01:54.940Z,5.09
2018-08-24T09:02:55.416Z,5.10
2018-08-24T09:03:55.938Z,5.21
2018-08-24T09:04:56.363Z,5.32
2018-08-24T09:05:56.876Z,5.27
2018-08-24T09:06:57.306Z,5.28
2018-08-24T09:07:57.777Z,5.20
2018-08-24T09:08:58.250Z,5.20
2018-08-24T09:09:58.721Z,5.19
2018-08-24T09:10:59.195Z,5.29
2018-08-24T09:11:59.665Z,5.31
2018-08-24T09:13:00.221Z,5.26
2018-08-24T09:14:00.660Z,5.23
2018-08-24T09:15:01.285Z,5.22
2018-08-24T09:16:01.553Z,5.22
2018-08-24T09:17:02.024Z,5.26
2018-08-24T09:18:02.493Z,5.18
2018-08-24T09:19:02.965Z,5.19
2018-08-24T09:20:03.435Z,5.18
2018-08-24T09:21:03.907Z,5.12
2018-08-24T09:22:04.383Z,5.08
2018-08-24T09:23:04.847Z,5.06
2018-08-24T09:24:05.319Z,5.00
2018-08-24T09:25:05.790Z,4.99
2018-08-24T09:26:06.264Z,5.00
2018-08-24T09:27:06.734Z,5.02
2018-08-24T09:28:07.203Z,4.98
2018-08-24T09:29:07.723Z,4.93
2018-08-24T09:30:08.148Z,4.93
2018-08-24T09:31:08.617Z,4.90
2018-08-24T09:32:09.088Z,4.85
2018-08-24T09:33:09.562Z,4.82
2018-08-24T09:34:10.083Z,4.92
2018-08-24T09:35:10.503Z,4.92
2018-08-24T09:36:10.979Z,4.87
2018-08-24T09:37:11.449Z,4.84
2018-08-24T09:38:11.919Z,4.84
2018-08-24T09:39:12.393Z,4.78
2018-08-24T09:40:12.873Z,4.84
2018-08-24T09:41:13.341Z,4.83
2018-08-24T09:42:13.816Z,4.78
2018-08-24T09:43:14.285Z,4.72
2018-08-24T09:44:14.811Z,4.65
2018-08-24T09:45:15.234Z,4.68
2018-08-24T09:46:15.706Z,4.68
2018-08-24T09:47:16.183Z,4.67
2018-08-24T09:48:16.657Z,4.66
2018-08-24T09:49:17.181Z,4.67
2018-08-24T09:50:17.605Z,4.66
2018-08-24T09:51:18.081Z,4.72
2018-08-24T09:52:18.555Z,4.72
2018-08-24T09:53:19.030Z,4.76
2018-08-24T09:54:19.509Z,4.73
2018-08-24T09:55:19.981Z,4.73
2018-08-24T09:56:20.454Z,4.70
2018-08-24T09:57:20.930Z,4.74
2018-08-24T09:58:21.406Z,4.78
2018-08-24T09:59:21.877Z,4.74
2018-08-24T10:00:22.355Z,4.76
2018-08-24T10:01:22.831Z,4.78
2018-08-24T10:02:23.304Z,4.78
2018-08-24T10:03:23.778Z,4.76
2018-08-24T10:04:24.252Z,4.78
2018-08-24T10:05:24.727Z,4.83
2018-08-24T10:06:25.269Z,4.89
2018-08-24T10:07:25.674Z,4.91
2018-08-24T10:08:26.150Z,4.92
2018-08-24T10:09:26.623Z,4.91
2018-08-24T10:10:27.094Z,4.91
2018-08-24T10:11:27.568Z,4.95
2018-08-24T10:12:28.042Z,5.08
2018-08-24T10:13:28.516Z,5.08
2018-08-24T10:14:28.987Z,5.03
2018-08-24T10:15:29.461Z,5.08
2018-08-24T10:16:29.935Z,5.06
2018-08-24T10:17:30.410Z,5.06
2018-08-24T10:18:30.880Z,5.04
2018-08-24T10:19:31.353Z,5.13
2018-08-24T10:20:31.825Z,4.92
2018-08-24T10:21:32.296Z,4.78
2018-08-24T10:22:32.768Z,4.90
2018-08-24T10:23:33.240Z,4.87
2018-08-24T10:24:33.763Z,4.81
2018-08-24T10:25:34.184Z,4.85
2018-08-24T10:26:34.659Z,5.02
2018-08-24T10:27:35.129Z,5.07
2018-08-24T10:28:35.598Z,4.96
2018-08-24T10:29:36.076Z,4.82
2018-08-24T10:30:36.540Z,4.86
2018-08-24T10:31:37.018Z,4.93
2018-08-24T10:32:37.485Z,4.92
2018-08-24T10:33:38.010Z,4.98
2018-08-24T10:34:38.425Z,4.96
2018-08-24T10:35:38.896Z,4.89
2018-08-24T10:36:39.367Z,4.82
2018-08-24T10:37:39.838Z,4.82
2018-08-24T10:38:40.309Z,4.84
2018-08-24T10:39:40.781Z,4.94
2018-08-24T10:40:41.310Z,5.04
2018-08-24T10:41:41.773Z,5.05
2018-08-24T10:42:42.194Z,4.95
2018-08-24T10:43:42.666Z,4.95
2018-08-24T10:44:43.136Z,5.06
2018-08-24T10:45:43.608Z,5.08
2018-08-24T10:46:44.080Z,4.91
2018-08-24T10:47:44.551Z,4.69
2018-08-24T10:48:45.023Z,4.57
2018-08-24T10:49:45.500Z,4.58
2018-08-24T10:50:45.967Z,4.61
2018-08-24T10:51:46.441Z,4.59
2018-08-24T10:52:46.912Z,4.62
2018-08-24T10:53:47.384Z,4.78
2018-08-24T10:54:47.898Z,4.84
2018-08-24T10:55:48.455Z,4.74
2018-08-24T10:56:48.805Z,4.74
2018-08-24T10:57:49.277Z,4.85
2018-08-24T10:58:49.760Z,4.78
2018-08-24T10:59:50.224Z,4.85
2018-08-24T11:00:50.701Z,4.88
2018-08-24T11:01:51.186Z,4.77
2018-08-24T11:02:51.647Z,4.76
2018-08-24T11:03:52.124Z,4.78
2018-08-24T11:04:52.602Z,4.78
2018-08-24T11:05:53.073Z,4.82
2018-08-24T11:06:53.548Z,4.82
2018-08-24T11:07:54.025Z,4.99
2018-08-24T11:08:54.499Z,4.83
2018-08-24T11:09:54.972Z,4.85
2018-08-24T11:10:55.452Z,4.81
2018-08-24T11:11:55.921Z,4.83
2018-08-24T11:12:56.449Z,4.54
2018-08-24T11:13:56.871Z,4.47
2018-08-24T11:14:57.394Z,4.47
2018-08-24T11:15:57.820Z,4.48
2018-08-24T11:16:58.408Z,4.32
2018-08-24T11:17:58.770Z,4.23
2018-08-24T11:18:59.242Z,4.26
2018-08-24T11:19:59.717Z,4.22
2018-08-24T11:21:00.190Z,4.28
2018-08-24T11:22:00.666Z,4.30
2018-08-24T11:23:01.169Z,4.44
2018-08-24T11:24:01.614Z,4.54
2018-08-24T11:25:02.131Z,4.58
2018-08-24T11:26:02.612Z,4.39
2018-08-24T11:27:03.130Z,4.40
2018-08-24T11:28:03.507Z,4.43
2018-08-24T11:29:03.982Z,4.45
2018-08-24T11:30:04.503Z,4.50
2018-08-24T11:31:04.926Z,4.44
2018-08-24T11:32:05.398Z,4.34
2018-08-24T11:33:06.073Z,4.32
2018-08-24T11:34:06.394Z,4.39
2018-08-24T11:35:06.815Z,4.40
2018-08-24T11:36:07.381Z,4.28
2018-08-24T11:37:07.760Z,4.26
2018-08-24T11:38:08.235Z,4.18
2018-08-24T11:39:08.708Z,4.24
2018-08-24T11:40:09.227Z,4.23
2018-08-24T11:41:09.649Z,4.16
2018-08-24T11:42:10.127Z,4.16
2018-08-24T11:43:10.590Z,4.24
2018-08-24T11:44:11.060Z,4.32
2018-08-24T11:45:11.535Z,4.35
2018-08-24T11:46:12.003Z,4.36
2018-08-24T11:47:12.472Z,4.44
2018-08-24T11:48:12.948Z,4.56
2018-08-24T11:49:13.418Z,4.56
2018-08-24T11:50:13.887Z,4.54
2018-08-24T11:51:14.358Z,4.57
2018-08-24T11:52:14.829Z,4.59
2018-08-24T11:53:15.301Z,4.56
2018-08-24T11:54:15.819Z,4.62
2018-08-24T11:55:16.296Z,4.58
2018-08-24T11:56:16.714Z,4.62
2018-08-24T11:57:17.184Z,4.70
2018-08-24T11:58:17.655Z,4.64
2018-08-24T11:59:18.129Z,4.73
2018-08-24T12:00:18.601Z,4.66
2018-08-24T12:01:19.071Z,4.62
2018-08-24T12:02:19.543Z,4.52
2018-08-24T12:03:20.015Z,4.54
2018-08-24T12:04:20.486Z,4.56
2018-08-24T12:05:20.961Z,4.44
2018-08-24T12:06:21.433Z,4.45
2018-08-24T12:07:21.906Z,4.42
2018-08-24T12:08:22.455Z,4.45
2018-08-24T12:09:22.850Z,4.46
2018-08-24T12:10:23.327Z,4.53
2018-08-24T12:11:23.798Z,4.68
2018-08-24T12:12:24.331Z,4.62
2018-08-24T12:13:24.745Z,4.63
2018-08-24T12:14:25.245Z,4.58
2018-08-24T12:15:25.695Z,4.46
2018-08-24T12:16:26.167Z,4.23
2018-08-24T12:17:26.644Z,4.16
2018-08-24T12:18:27.185Z,4.02
2018-08-24T12:19:27.592Z,3.81
2018-08-24T12:20:28.067Z,3.92
2018-08-24T12:21:28.543Z,4.10
2018-08-24T12:22:29.016Z,4.18
2018-08-24T12:23:29.490Z,4.38
2018-08-24T12:24:30.022Z,4.48
2018-08-24T12:25:30.443Z,4.62
2018-08-24T12:26:30.915Z,4.70
2018-08-24T12:27:31.391Z,4.50
2018-08-24T12:28:31.868Z,4.42
2018-08-24T12:29:32.341Z,4.38
2018-08-24T12:30:32.815Z,4.34
2018-08-24T12:31:33.291Z,4.33
2018-08-24T12:32:33.764Z,4.34
2018-08-24T12:33:34.244Z,4.34
2018-08-24T12:34:34.718Z,4.42
2018-08-24T12:35:35.189Z,4.51
2018-08-24T12:36:35.660Z,4.61
2018-08-24T12:37:36.134Z,4.65
2018-08-24T12:38:36.608Z,4.55
2018-08-24T12:39:37.082Z,4.33
2018-08-24T12:40:37.555Z,4.35
2018-08-24T12:41:38.028Z,4.26
2018-08-24T12:42:38.503Z,4.32
2018-08-24T12:43:39.033Z,4.24
2018-08-24T12:44:39.448Z,4.14
2018-08-24T12:45:39.920Z,4.24
2018-08-24T12:46:40.394Z,4.26
2018-08-24T12:47:40.866Z,4.08
2018-08-24T12:48:41.339Z,4.12
2018-08-24T12:49:41.809Z,4.21
2018-08-24T12:50:42.283Z,4.28
2018-08-24T12:51:42.753Z,4.34
2018-08-24T12:52:43.225Z,4.41
2018-08-24T12:53:43.699Z,4.38
2018-08-24T12:54:44.173Z,4.32
2018-08-24T12:55:44.642Z,4.26
2018-08-24T12:56:45.112Z,4.34
2018-08-24T12:57:45.584Z,4.46
2018-08-24T12:58:46.053Z,4.60
2018-08-24T12:59:46.528Z,4.64
2018-08-24T13:00:46.996Z,4.78
2018-08-24T13:01:47.471Z,4.76
2018-08-24T13:02:47.940Z,4.71
2018-08-24T13:03:48.409Z,4.72
2018-08-24T13:04:48.883Z,4.74
2018-08-24T13:05:49.352Z,4.66
2018-08-24T13:06:49.828Z,4.70
2018-08-24T13:07:50.294Z,4.77
2018-08-24T13:08:50.766Z,4.84
2018-08-24T13:09:51.237Z,4.71
2018-08-24T13:10:51.711Z,4.59
2018-08-24T13:11:52.184Z,4.68
2018-08-24T13:12:52.655Z,4.66
2018-08-24T13:13:53.124Z,4.52
2018-08-24T13:14:53.597Z,4.48
2018-08-24T13:15:54.068Z,4.53
2018-08-24T13:16:54.544Z,4.62
2018-08-24T13:17:55.017Z,4.58
2018-08-24T13:18:55.487Z,4.59
2018-08-24T13:19:55.961Z,4.58
2018-08-24T13:20:56.434Z,4.70
2018-08-24T13:21:56.910Z,4.64
2018-08-24T13:22:57.383Z,4.70
2018-08-24T13:23:57.853Z,4.70
2018-08-24T13:24:58.329Z,4.56